This is the latest recevied weather packets stored in our database for station/object DL6DJ-15. If no packets are shown the sender has not sent any weather packets the latest 10 day(s).
| Time | Temp. | Humidity | Pressure | Rain* | Wind** | Luminosity | Snow |
|---|---|---|---|---|---|---|---|
| 1777703385 | 19.44° C | 37% | 1025.4 hPa | - | - | - | - |
| 1777703085 | 19.44° C | 35% | 1025.4 hPa | - | - | - | - |
| 1777702784 | 20.56° C | 34% | 1025.4 hPa | - | - | - | - |
| 1777702484 | 20° C | 35% | 1025.4 hPa | - | - | - | - |
| 1777702184 | 19.44° C | 34% | 1025.4 hPa | - | - | - | - |
| 1777701883 | 18.89° C | 35% | 1025.5 hPa | - | - | - | - |
| 1777701583 | 18.89° C | 35% | 1025.4 hPa | - | - | - | - |
| 1777701282 | 18.89° C | 34% | 1025.4 hPa | - | - | - | - |
| 1777700982 | 19.44° C | 32% | 1025.4 hPa | - | - | - | - |
| 1777700682 | 20.56° C | 30% | 1025.4 hPa | - | - | - | - |
| 1777700382 | 19.44° C | 32% | 1025.4 hPa | - | - | - | - |
| 1777700081 | 18.89° C | 34% | 1025.5 hPa | - | - | - | - |
| 1777699781 | 17.78° C | 35% | 1025.5 hPa | - | - | - | - |
| 1777699480 | 17.22° C | 36% | 1025.5 hPa | - | - | - | - |
| 1777699180 | 16.11° C | 38% | 1025.5 hPa | - | - | - | - |
| 1777698879 | 14.44° C | 41% | 1025.5 hPa | - | - | - | - |
| 1777698579 | 12.22° C | 47% | 1025.4 hPa | - | - | - | - |
| 1777698279 | 9.44° C | 55% | 1025.3 hPa | - | - | - | - |
| 1777697978 | 6.67° C | 64% | 1025.4 hPa | - | - | - | - |
| 1777697678 | 3.89° C | 71% | 1025.4 hPa | - | - | - | - |
| 1777697377 | 3.33° C | 71% | 1025.3 hPa | - | - | - | - |
| 1777697077 | 3.33° C | 72% | 1025.3 hPa | - | - | - | - |
| 1777696776 | 3.33° C | 72% | 1025.3 hPa | - | - | - | - |
| 1777696476 | 3.33° C | 71% | 1025.3 hPa | - | - | - | - |
| 1777696176 | 3.33° C | 71% | 1025.3 hPa | - | - | - | - |
* Rain since midnight (hover to see other rain measurements)
** Current wind speed in m/s (hover to see current wind gust speed)